SAS467 ESSA-LFMN
Flight info
| Callsign | SAS467 |
|---|---|
| Flight time | N/A |
| Altitude | 38000 |
| Route | NOSLI N850 ABAMA DCT POKEN Z212 BANUB DCT CIPPI/N0445F370 DCT MAREM/N0448F380 DCT RUDAP DCT EBEDA DCT BADVI DCT BERAS DCT OLPIX/N0450F390 DCT EKPEB DCT UNTAD DCT LUSIL DCT EVANO DCT ENOBA/N0340F190 Z185 BORDI |
| Aircraft | A20N/M-SDE2E3FGHIRWXY/LB1 |
Departure
| Time | 2026-05-07 16:55 |
|---|---|
| Airport | Stockholm-Arlanda Airport (ESSA) |
Arrival
| Time | N/A |
|---|---|
| Airport | Nice-Côte d'Azur Airport (LFMN) |
| Time | Latitude | Longitude | Altitude | Speed | Heading |
|---|---|---|---|---|---|
| 2026-05-07 16:10 | 59.65136 | 17.92796 | 111 ft | 0 kts | 191° |
| 2026-05-07 16:42 | 59.65138 | 17.92797 | 110 ft | 2 kts | 191° |
| 2026-05-07 16:42 | 59.65159 | 17.92804 | 111 ft | 3 kts | 191° |
| 2026-05-07 16:43 | 59.65184 | 17.92814 | 109 ft | 4 kts | 190° |
| 2026-05-07 16:43 | 59.65206 | 17.92821 | 111 ft | 4 kts | 193° |
| 2026-05-07 16:43 | 59.65232 | 17.92834 | 110 ft | 4 kts | 176° |
| 2026-05-07 16:43 | 59.65252 | 17.92821 | 111 ft | 4 kts | 151° |
| 2026-05-07 16:44 | 59.65260 | 17.92812 | 111 ft | 0 kts | 152° |
| 2026-05-07 16:49 | 59.65253 | 17.92817 | 111 ft | 3 kts | 159° |
| 2026-05-07 16:49 | 59.65245 | 17.92802 | 111 ft | 3 kts | 217° |
| 2026-05-07 16:50 | 59.65234 | 17.92760 | 111 ft | 3 kts | 271° |
| 2026-05-07 16:50 | 59.65246 | 17.92703 | 109 ft | 6 kts | 289° |
| 2026-05-07 16:50 | 59.65257 | 17.92609 | 110 ft | 8 kts | 282° |
| 2026-05-07 16:50 | 59.65275 | 17.92487 | 111 ft | 10 kts | 288° |
| 2026-05-07 16:51 | 59.65306 | 17.92328 | 106 ft | 15 kts | 306° |
| 2026-05-07 16:51 | 59.65413 | 17.92296 | 104 ft | 17 kts | 9° |
| 2026-05-07 16:51 | 59.65536 | 17.92340 | 104 ft | 19 kts | 10° |
| 2026-05-07 16:51 | 59.65670 | 17.92388 | 104 ft | 20 kts | 10° |
| 2026-05-07 16:52 | 59.65813 | 17.92439 | 105 ft | 21 kts | 10° |
| 2026-05-07 16:52 | 59.65955 | 17.92490 | 107 ft | 21 kts | 8° |
| 2026-05-07 16:52 | 59.66094 | 17.92541 | 111 ft | 20 kts | 12° |
| 2026-05-07 16:52 | 59.66232 | 17.92591 | 114 ft | 20 kts | 10° |
| 2026-05-07 16:53 | 59.66362 | 17.92638 | 117 ft | 18 kts | 11° |
| 2026-05-07 16:53 | 59.66484 | 17.92640 | 118 ft | 17 kts | 347° |
| 2026-05-07 16:53 | 59.66597 | 17.92557 | 122 ft | 17 kts | 327° |
| 2026-05-07 16:53 | 59.66588 | 17.92371 | 121 ft | 16 kts | 207° |
| 2026-05-07 16:54 | 59.66474 | 17.92318 | 120 ft | 21 kts | 189° |
| 2026-05-07 16:54 | 59.66146 | 17.92197 | 117 ft | 81 kts | 189° |
| 2026-05-07 16:54 | 59.65382 | 17.91920 | 105 ft | 138 kts | 189° |
| 2026-05-07 16:54 | 59.64304 | 17.91545 | 296 ft | 164 kts | 191° |
| 2026-05-07 16:55 | 59.63182 | 17.91118 | 879 ft | 163 kts | 191° |
| 2026-05-07 16:55 | 59.62065 | 17.90684 | 1493 ft | 165 kts | 192° |
| 2026-05-07 16:55 | 59.60923 | 17.90175 | 2054 ft | 171 kts | 195° |
| 2026-05-07 16:55 | 59.59779 | 17.89313 | 2532 ft | 184 kts | 211° |
| 2026-05-07 16:56 | 59.58790 | 17.87611 | 3010 ft | 199 kts | 235° |
| 2026-05-07 16:56 | 59.58257 | 17.84991 | 3499 ft | 217 kts | 262° |
| 2026-05-07 16:56 | 59.57794 | 17.78773 | 4915 ft | 234 kts | 250° |
| 2026-05-07 16:57 | 59.57091 | 17.75772 | 5573 ft | 248 kts | 239° |
| 2026-05-07 16:57 | 59.55984 | 17.73085 | 6184 ft | 263 kts | 221° |
| 2026-05-07 16:57 | 59.54404 | 17.71076 | 6787 ft | 275 kts | 208° |
| 2026-05-07 16:57 | 59.52676 | 17.69389 | 7679 ft | 278 kts | 205° |
| 2026-05-07 16:58 | 59.50903 | 17.67815 | 8563 ft | 281 kts | 204° |
| 2026-05-07 16:58 | 59.49110 | 17.66263 | 9419 ft | 283 kts | 204° |
| 2026-05-07 16:58 | 59.47297 | 17.64649 | 10231 ft | 288 kts | 206° |
| 2026-05-07 16:58 | 59.45431 | 17.62866 | 10612 ft | 309 kts | 207° |
| 2026-05-07 16:59 | 59.43455 | 17.60921 | 10873 ft | 331 kts | 207° |
| 2026-05-07 16:59 | 59.41361 | 17.58850 | 11466 ft | 340 kts | 207° |
| 2026-05-07 16:59 | 59.39233 | 17.56753 | 12241 ft | 343 kts | 207° |
| 2026-05-07 16:59 | 59.37083 | 17.54644 | 12982 ft | 347 kts | 207° |
| 2026-05-07 17:00 | 59.34930 | 17.52540 | 13690 ft | 351 kts | 207° |
| 2026-05-07 17:00 | 59.32730 | 17.50395 | 14394 ft | 354 kts | 207° |
| 2026-05-07 17:00 | 59.30504 | 17.48229 | 15082 ft | 358 kts | 207° |
| 2026-05-07 17:00 | 59.28253 | 17.46042 | 15745 ft | 362 kts | 206° |
| 2026-05-07 17:01 | 59.25979 | 17.43836 | 16394 ft | 366 kts | 206° |
| 2026-05-07 17:01 | 59.23688 | 17.41616 | 17028 ft | 369 kts | 206° |
| 2026-05-07 17:01 | 59.21403 | 17.39406 | 17631 ft | 373 kts | 206° |
| 2026-05-07 17:01 | 59.19058 | 17.37141 | 18231 ft | 376 kts | 206° |
| 2026-05-07 17:02 | 59.16691 | 17.34859 | 18818 ft | 379 kts | 206° |
| 2026-05-07 17:02 | 59.14343 | 17.32598 | 19382 ft | 383 kts | 206° |
| 2026-05-07 17:02 | 59.11935 | 17.30283 | 19944 ft | 386 kts | 206° |
| 2026-05-07 17:02 | 59.09510 | 17.27955 | 20503 ft | 389 kts | 206° |
| 2026-05-07 17:03 | 59.07143 | 17.25355 | 21036 ft | 392 kts | 214° |
| 2026-05-07 17:03 | 59.04956 | 17.22144 | 21553 ft | 395 kts | 220° |
| 2026-05-07 17:03 | 59.02841 | 17.18691 | 22061 ft | 398 kts | 220° |
| 2026-05-07 17:03 | 59.00742 | 17.15277 | 22553 ft | 401 kts | 220° |
| 2026-05-07 17:04 | 58.98574 | 17.11768 | 23045 ft | 404 kts | 220° |
| 2026-05-07 17:04 | 58.96414 | 17.08289 | 23516 ft | 407 kts | 220° |
| 2026-05-07 17:04 | 58.94215 | 17.04758 | 23983 ft | 411 kts | 220° |
| 2026-05-07 17:04 | 58.92000 | 17.01208 | 24451 ft | 413 kts | 220° |
| 2026-05-07 17:05 | 58.89781 | 16.97660 | 24886 ft | 416 kts | 220° |
| 2026-05-07 17:05 | 58.87535 | 16.94073 | 25311 ft | 419 kts | 220° |
| 2026-05-07 17:05 | 58.85307 | 16.90521 | 25721 ft | 422 kts | 220° |
| 2026-05-07 17:05 | 58.83018 | 16.86878 | 26131 ft | 424 kts | 219° |
| 2026-05-07 17:06 | 58.80727 | 16.83238 | 26515 ft | 427 kts | 219° |
| 2026-05-07 17:06 | 58.78451 | 16.79630 | 26892 ft | 429 kts | 219° |
| 2026-05-07 17:06 | 58.76130 | 16.75956 | 27259 ft | 432 kts | 219° |
| 2026-05-07 17:06 | 58.73798 | 16.72272 | 27616 ft | 434 kts | 219° |
| 2026-05-07 17:07 | 58.71451 | 16.68570 | 27951 ft | 437 kts | 219° |
| 2026-05-07 17:07 | 58.69093 | 16.64856 | 28285 ft | 439 kts | 219° |
| 2026-05-07 17:07 | 58.66712 | 16.61115 | 28598 ft | 441 kts | 219° |
| 2026-05-07 17:07 | 58.64358 | 16.57422 | 28897 ft | 443 kts | 219° |
| 2026-05-07 17:08 | 58.61962 | 16.53670 | 29202 ft | 445 kts | 219° |
| 2026-05-07 17:08 | 58.59552 | 16.49902 | 29494 ft | 447 kts | 219° |
| 2026-05-07 17:08 | 58.57131 | 16.46127 | 29768 ft | 449 kts | 219° |
| 2026-05-07 17:08 | 58.54700 | 16.42342 | 30051 ft | 451 kts | 219° |
| 2026-05-07 17:09 | 58.52276 | 16.38574 | 30329 ft | 453 kts | 219° |
| 2026-05-07 17:09 | 58.49814 | 16.34754 | 30597 ft | 455 kts | 219° |
| 2026-05-07 17:09 | 58.47344 | 16.30927 | 30875 ft | 457 kts | 219° |
| 2026-05-07 17:09 | 58.44863 | 16.27093 | 31175 ft | 458 kts | 219° |
| 2026-05-07 17:10 | 58.42414 | 16.23315 | 31505 ft | 458 kts | 219° |
| 2026-05-07 17:10 | 58.39927 | 16.19485 | 31865 ft | 458 kts | 219° |
| 2026-05-07 17:10 | 58.37444 | 16.15669 | 32214 ft | 457 kts | 219° |
| 2026-05-07 17:10 | 58.34974 | 16.11879 | 32538 ft | 456 kts | 219° |
| 2026-05-07 17:11 | 58.32494 | 16.08081 | 32862 ft | 455 kts | 219° |
| 2026-05-07 17:11 | 58.30051 | 16.04346 | 33176 ft | 455 kts | 219° |
| 2026-05-07 17:11 | 58.27580 | 16.00576 | 33465 ft | 454 kts | 219° |
| 2026-05-07 17:11 | 58.25106 | 15.96809 | 33749 ft | 454 kts | 219° |